createdAt,value
2023-04-04T00:02:27.539Z,1.93
2023-04-04T00:04:55.253Z,1.92
2023-04-04T00:07:24.263Z,1.61
2023-04-04T00:09:51.877Z,1.80
2023-04-04T00:12:19.558Z,1.92
2023-04-04T00:14:47.277Z,1.82
2023-04-04T00:17:15.039Z,1.73
2023-04-04T00:19:43.214Z,1.74
2023-04-04T00:22:11.327Z,1.81
2023-04-04T00:24:40.559Z,1.58
2023-04-04T00:27:08.245Z,1.67
2023-04-04T00:29:37.283Z,1.73
2023-04-04T00:32:05.054Z,1.69
2023-04-04T00:34:32.715Z,1.72
2023-04-04T00:37:00.901Z,1.81
2023-04-04T00:39:28.580Z,1.68
2023-04-04T00:41:58.259Z,1.72
2023-04-04T00:44:26.121Z,1.70
2023-04-04T00:46:53.936Z,1.68
2023-04-04T00:49:21.582Z,1.68
2023-04-04T00:51:49.592Z,1.72
2023-04-04T00:54:17.652Z,1.53
2023-04-04T00:56:45.386Z,1.64
2023-04-04T00:59:16.088Z,1.59
2023-04-04T01:01:43.891Z,1.40
2023-04-04T01:04:11.633Z,1.48
2023-04-04T01:06:39.403Z,1.56
2023-04-04T01:09:07.252Z,1.55
2023-04-04T01:11:35.976Z,1.40
2023-04-04T01:14:04.595Z,0.98
2023-04-04T01:16:35.031Z,1.41
2023-04-04T01:19:05.008Z,1.51
2023-04-04T01:21:33.436Z,1.31
2023-04-04T01:24:02.950Z,1.28
2023-04-04T01:26:39.707Z,1.27
2023-04-04T01:29:07.445Z,1.43
2023-04-04T01:31:41.636Z,1.29
2023-04-04T01:34:16.655Z,1.39
2023-04-04T01:36:49.371Z,1.32
2023-04-04T01:39:25.973Z,1.38
2023-04-04T01:41:57.602Z,1.16
2023-04-04T01:44:26.421Z,1.25
2023-04-04T01:46:54.979Z,1.34
2023-04-04T01:49:23.830Z,1.28
2023-04-04T01:51:53.539Z,1.20
2023-04-04T01:54:22.564Z,1.19
2023-04-04T01:56:50.309Z,1.36
2023-04-04T01:59:19.567Z,1.20
2023-04-04T02:01:47.279Z,1.17
2023-04-04T02:04:15.143Z,1.16
2023-04-04T02:06:42.861Z,1.21
2023-04-04T02:09:10.457Z,1.13
2023-04-04T02:11:38.999Z,1.13
2023-04-04T02:14:06.681Z,1.16
2023-04-04T02:16:35.836Z,1.01
2023-04-04T02:19:03.940Z,1.02
2023-04-04T02:21:36.523Z,0.96
2023-04-04T02:24:04.300Z,0.94
2023-04-04T02:26:31.932Z,1.01
2023-04-04T02:28:59.705Z,1.01
2023-04-04T02:31:27.428Z,1.01
2023-04-04T02:33:57.514Z,0.95
2023-04-04T02:36:25.333Z,1.02
2023-04-04T02:38:56.081Z,1.04
2023-04-04T02:41:26.660Z,1.01
2023-04-04T02:43:54.326Z,0.95
2023-04-04T02:46:22.352Z,1.01
2023-04-04T02:48:57.793Z,0.95
2023-04-04T02:51:25.830Z,1.01
2023-04-04T02:53:53.608Z,0.92
2023-04-04T02:56:26.561Z,0.72
2023-04-04T02:58:54.551Z,0.96
2023-04-04T03:01:22.309Z,0.73
2023-04-04T03:03:50.343Z,0.88
2023-04-04T03:06:19.368Z,0.74
2023-04-04T03:08:49.414Z,0.87
2023-04-04T03:11:18.729Z,0.79
2023-04-04T03:13:46.920Z,0.84
2023-04-04T03:16:17.745Z,0.74
2023-04-04T03:18:49.391Z,0.79
2023-04-04T03:21:22.105Z,0.78
2023-04-04T03:23:49.790Z,0.62
2023-04-04T03:26:17.491Z,0.64
2023-04-04T03:28:45.272Z,0.67
2023-04-04T03:31:14.760Z,0.68
2023-04-04T03:33:43.828Z,0.63
2023-04-04T03:36:12.931Z,0.63
2023-04-04T03:38:42.312Z,0.58
2023-04-04T03:41:11.249Z,0.58
2023-04-04T03:43:39.013Z,0.64
2023-04-04T03:46:07.904Z,0.47
2023-04-04T03:48:36.033Z,0.61
2023-04-04T03:51:07.704Z,0.46
2023-04-04T03:53:36.501Z,0.45
2023-04-04T03:56:06.414Z,0.40
2023-04-04T03:58:36.552Z,0.49
2023-04-04T04:01:04.375Z,0.42
2023-04-04T04:03:32.741Z,0.41
2023-04-04T04:06:00.752Z,0.46
2023-04-04T04:08:28.754Z,0.30
2023-04-04T04:10:56.521Z,0.49
2023-04-04T04:13:25.524Z,0.40
2023-04-04T04:15:55.615Z,0.34
2023-04-04T04:18:24.399Z,0.43
2023-04-04T04:20:58.096Z,0.40
2023-04-04T04:23:26.479Z,0.34
2023-04-04T04:25:54.225Z,0.29
2023-04-04T04:28:33.313Z,0.32
2023-04-04T04:31:07.126Z,0.27
2023-04-04T04:33:41.121Z,0.35
2023-04-04T04:36:09.115Z,0.34
2023-04-04T04:39:15.359Z,0.26
2023-04-04T04:41:55.309Z,0.32
2023-04-04T04:44:26.333Z,0.39
2023-04-04T04:46:56.532Z,0.39
2023-04-04T04:49:24.365Z,0.36
2023-04-04T04:51:53.637Z,0.26
2023-04-04T04:54:22.235Z,0.24
2023-04-04T04:56:55.172Z,0.18
2023-04-04T04:59:23.512Z,0.21
2023-04-04T05:01:52.858Z,0.26
2023-04-04T05:04:21.587Z,0.23
2023-04-04T05:07:00.083Z,0.22
2023-04-04T05:09:28.632Z,0.04
2023-04-04T05:11:56.418Z,0.34
2023-04-04T05:14:30.671Z,0.24
2023-04-04T05:17:00.364Z,0.30
2023-04-04T05:19:31.637Z,0.34
2023-04-04T05:22:00.312Z,0.39
2023-04-04T05:24:33.812Z,0.33
2023-04-04T05:27:02.615Z,0.37
2023-04-04T05:29:37.301Z,0.45
2023-04-04T05:32:07.010Z,0.37
2023-04-04T05:34:36.751Z,0.39
2023-04-04T05:37:08.523Z,0.37
2023-04-04T05:39:37.754Z,0.47
2023-04-04T05:42:08.668Z,0.42
2023-04-04T05:44:41.131Z,0.51
2023-04-04T05:47:12.166Z,0.48
2023-04-04T05:49:44.072Z,0.52
2023-04-04T05:52:12.378Z,0.56
2023-04-04T05:54:40.170Z,0.59
2023-04-04T05:57:13.609Z,0.73
2023-04-04T05:59:49.181Z,0.87
2023-04-04T06:02:19.665Z,0.88
2023-04-04T06:04:52.233Z,1.03
2023-04-04T06:07:29.001Z,1.05
2023-04-04T06:09:56.649Z,1.11
2023-04-04T06:12:24.480Z,1.12
2023-04-04T06:14:52.154Z,1.27
2023-04-04T06:17:24.553Z,1.34
2023-04-04T06:19:55.203Z,1.45
2023-04-04T06:22:23.698Z,1.53
2023-04-04T06:24:54.018Z,1.65
2023-04-04T06:27:22.204Z,1.73
2023-04-04T06:29:50.148Z,1.86
2023-04-04T06:32:21.716Z,1.92
2023-04-04T06:34:51.527Z,2.09
2023-04-04T06:37:28.658Z,2.18
2023-04-04T06:40:05.318Z,2.31
2023-04-04T06:42:33.411Z,2.51
2023-04-04T06:45:04.586Z,2.71
2023-04-04T06:47:33.284Z,2.69
2023-04-04T06:50:05.347Z,2.96
2023-04-04T06:52:33.270Z,2.85
2023-04-04T06:55:00.998Z,2.90
2023-04-04T06:57:28.812Z,2.98
2023-04-04T06:59:56.737Z,2.99
2023-04-04T07:02:24.576Z,3.22
2023-04-04T07:04:52.222Z,3.28
2023-04-04T07:07:21.987Z,3.26
2023-04-04T07:09:49.689Z,3.31
2023-04-04T07:12:17.474Z,3.14
2023-04-04T07:14:45.412Z,3.35
2023-04-04T07:17:23.552Z,3.57
2023-04-04T07:19:52.708Z,3.44
2023-04-04T07:22:22.023Z,3.90
2023-04-04T07:24:49.665Z,3.93
2023-04-04T07:27:17.371Z,4.10
2023-04-04T07:29:45.098Z,4.17
2023-04-04T07:32:12.742Z,4.47
2023-04-04T07:34:40.374Z,4.38
2023-04-04T07:37:08.241Z,4.36
2023-04-04T07:39:37.625Z,4.11
2023-04-04T07:42:05.239Z,4.24
2023-04-04T07:44:32.982Z,4.50
2023-04-04T07:47:09.192Z,4.59
2023-04-04T07:49:37.823Z,4.53
2023-04-04T07:52:06.246Z,4.88
2023-04-04T07:54:33.973Z,5.07
2023-04-04T07:57:05.403Z,5.30
2023-04-04T07:59:33.290Z,5.03
2023-04-04T08:02:01.177Z,5.48
2023-04-04T08:04:28.838Z,5.55
2023-04-04T08:06:56.467Z,5.64
2023-04-04T08:09:24.851Z,5.97
2023-04-04T08:11:52.598Z,5.96
2023-04-04T08:14:21.910Z,5.82
2023-04-04T08:16:49.559Z,5.68
2023-04-04T08:19:17.790Z,5.38
2023-04-04T08:21:45.494Z,5.59
2023-04-04T08:24:13.152Z,5.45
2023-04-04T08:26:42.258Z,5.89
2023-04-04T08:29:10.193Z,5.86
2023-04-04T08:31:40.560Z,5.63
2023-04-04T08:34:08.676Z,5.57
2023-04-04T08:36:36.742Z,5.48
2023-04-04T08:39:04.647Z,5.72
2023-04-04T08:41:35.657Z,5.84
2023-04-04T08:44:05.475Z,6.03
2023-04-04T08:46:34.010Z,6.15
2023-04-04T08:49:04.657Z,6.51
2023-04-04T08:51:34.898Z,6.42
2023-04-04T08:54:04.114Z,6.54
2023-04-04T08:56:31.791Z,6.55
2023-04-04T08:59:00.110Z,6.34
2023-04-04T09:01:29.790Z,6.46
2023-04-04T09:03:58.012Z,6.63
2023-04-04T09:06:28.059Z,6.53
2023-04-04T09:08:57.490Z,6.78
2023-04-04T09:11:26.982Z,7.01
2023-04-04T09:13:57.287Z,7.18
2023-04-04T09:16:25.336Z,7.19
2023-04-04T09:18:53.569Z,7.28
2023-04-04T09:21:21.515Z,7.27
2023-04-04T09:23:59.430Z,7.25
2023-04-04T09:26:27.105Z,6.92
2023-04-04T09:28:54.954Z,6.98
2023-04-04T09:31:22.765Z,6.89
2023-04-04T09:33:50.633Z,6.49
2023-04-04T09:36:18.703Z,6.77
2023-04-04T09:38:48.705Z,7.01
2023-04-04T09:41:21.122Z,7.02
2023-04-04T09:43:49.361Z,7.18
2023-04-04T09:46:20.260Z,7.18
2023-04-04T09:48:51.346Z,7.12
2023-04-04T09:51:18.974Z,7.52
2023-04-04T09:53:49.168Z,7.43
2023-04-04T09:56:18.501Z,7.66
2023-04-04T09:59:00.787Z,7.92
2023-04-04T10:01:31.644Z,7.79
2023-04-04T10:03:59.404Z,7.74
2023-04-04T10:06:28.007Z,7.76
2023-04-04T10:08:58.276Z,7.91
2023-04-04T10:11:32.236Z,8.40
2023-04-04T10:14:00.590Z,8.36
2023-04-04T10:16:28.244Z,8.19
2023-04-04T10:18:56.264Z,7.84
2023-04-04T10:21:24.903Z,7.78
2023-04-04T10:23:53.974Z,7.88
2023-04-04T10:26:22.588Z,8.04
2023-04-04T10:29:14.294Z,7.77
2023-04-04T10:31:46.360Z,8.25
2023-04-04T10:34:29.577Z,8.64
2023-04-04T10:37:05.847Z,8.43
2023-04-04T10:39:37.518Z,8.17
2023-04-04T10:42:06.873Z,8.50
2023-04-04T10:44:40.074Z,8.76
2023-04-04T10:47:15.526Z,8.67
2023-04-04T10:49:45.920Z,8.71
2023-04-04T10:52:15.926Z,8.54
2023-04-04T10:54:44.850Z,8.64
2023-04-04T10:57:14.128Z,8.87
2023-04-04T10:59:59.239Z,8.87
2023-04-04T11:02:45.403Z,9.15
2023-04-04T11:05:13.978Z,8.80
2023-04-04T11:07:43.150Z,9.06
2023-04-04T11:10:16.109Z,9.12
2023-04-04T11:12:46.035Z,9.07
2023-04-04T11:15:16.283Z,9.44
2023-04-04T11:18:21.489Z,9.32
2023-04-04T11:20:55.308Z,9.31
2023-04-04T11:23:23.358Z,9.24
2023-04-04T11:25:52.345Z,9.48
2023-04-04T11:28:29.129Z,9.09
2023-04-04T11:31:29.024Z,9.12
2023-04-04T11:34:04.444Z,9.48
2023-04-04T11:36:53.463Z,9.44
2023-04-04T11:39:31.167Z,9.46
2023-04-04T11:42:04.387Z,9.80
2023-04-04T11:44:33.413Z,10.11
2023-04-04T11:47:11.897Z,10.37
2023-04-04T11:49:41.842Z,10.35
2023-04-04T11:52:11.100Z,9.92
2023-04-04T11:54:39.380Z,10.08
2023-04-04T11:57:07.314Z,9.90
2023-04-04T11:59:39.994Z,9.59
2023-04-04T12:02:10.138Z,9.83
2023-04-04T12:04:40.407Z,10.05
2023-04-04T12:07:10.356Z,10.03
2023-04-04T12:09:38.965Z,9.98
2023-04-04T12:12:07.552Z,10.10
2023-04-04T12:14:35.332Z,10.24
2023-04-04T12:17:03.849Z,10.24
2023-04-04T12:19:37.917Z,10.32
2023-04-04T12:22:06.014Z,10.14
2023-04-04T12:24:33.947Z,10.52
2023-04-04T12:27:03.135Z,10.87
2023-04-04T12:29:36.482Z,10.21
2023-04-04T12:32:05.782Z,10.37
2023-04-04T12:34:38.581Z,10.06
2023-04-04T12:37:11.970Z,9.83
2023-04-04T12:39:48.699Z,10.20
2023-04-04T12:42:21.953Z,9.59
2023-04-04T12:44:51.973Z,10.19
2023-04-04T12:47:20.995Z,10.31
2023-04-04T12:49:50.955Z,10.58
2023-04-04T12:52:20.534Z,11.03
2023-04-04T12:54:56.198Z,11.16
2023-04-04T12:57:35.135Z,11.07
2023-04-04T13:00:06.484Z,11.15
2023-04-04T13:02:36.519Z,11.03
2023-04-04T13:05:07.118Z,11.44
2023-04-04T13:07:42.858Z,11.26
2023-04-04T13:10:14.037Z,11.22
2023-04-04T13:12:58.920Z,10.13
2023-04-04T13:15:51.523Z,10.79
2023-04-04T13:18:22.043Z,10.95
2023-04-04T13:20:53.018Z,10.41
2023-04-04T13:23:21.569Z,10.32
2023-04-04T13:25:49.643Z,10.93
2023-04-04T13:28:17.271Z,11.03
2023-04-04T13:30:48.872Z,10.88
2023-04-04T13:33:17.179Z,10.87
2023-04-04T13:35:45.596Z,10.88
2023-04-04T13:38:14.841Z,10.97
2023-04-04T13:40:42.643Z,11.05
2023-04-04T13:43:11.411Z,10.92
2023-04-04T13:45:39.574Z,10.94
2023-04-04T13:48:07.502Z,11.17
2023-04-04T13:50:36.921Z,11.49
2023-04-04T13:53:04.607Z,11.12
2023-04-04T13:55:33.709Z,11.11
2023-04-04T13:58:01.591Z,11.22
2023-04-04T14:00:29.571Z,11.19
2023-04-04T14:02:59.116Z,11.15
2023-04-04T14:05:26.850Z,10.97
2023-04-04T14:07:54.575Z,10.76
2023-04-04T14:10:22.183Z,10.71
2023-04-04T14:12:51.131Z,11.30
2023-04-04T14:15:18.757Z,11.69
2023-04-04T14:17:46.433Z,11.56
2023-04-04T14:20:14.105Z,11.48
2023-04-04T14:22:41.854Z,11.17
2023-04-04T14:25:10.094Z,10.87
2023-04-04T14:27:37.728Z,10.83
2023-04-04T14:30:08.264Z,11.21
2023-04-04T14:32:35.907Z,11.39
2023-04-04T14:35:03.956Z,10.84
2023-04-04T14:37:31.585Z,10.89
2023-04-04T14:39:59.698Z,10.92
2023-04-04T14:42:27.478Z,10.75
2023-04-04T14:44:55.105Z,10.91
2023-04-04T14:47:24.464Z,10.91
2023-04-04T14:49:53.154Z,10.73
2023-04-04T14:52:21.890Z,10.74
2023-04-04T14:54:49.616Z,10.80
2023-04-04T14:57:17.628Z,10.81
2023-04-04T14:59:45.258Z,10.61
2023-04-04T15:02:12.943Z,10.64
2023-04-04T15:04:42.649Z,10.58
2023-04-04T15:07:10.455Z,10.69
2023-04-04T15:09:38.085Z,10.62
2023-04-04T15:12:05.992Z,10.69
2023-04-04T15:14:33.798Z,11.03
2023-04-04T15:17:01.457Z,10.84
2023-04-04T15:19:29.424Z,10.80
2023-04-04T15:21:58.369Z,10.87
2023-04-04T15:24:26.142Z,10.80
2023-04-04T15:26:55.758Z,10.74
2023-04-04T15:29:24.161Z,10.74
2023-04-04T15:31:51.943Z,10.70
2023-04-04T15:34:19.588Z,10.88
2023-04-04T15:36:47.296Z,10.96
2023-04-04T15:39:16.313Z,11.16
2023-04-04T15:41:44.184Z,10.89
2023-04-04T15:44:11.824Z,10.68
2023-04-04T15:46:39.659Z,10.53
2023-04-04T15:49:07.329Z,10.38
2023-04-04T15:51:36.611Z,10.43
2023-04-04T15:54:04.805Z,10.33
2023-04-04T15:56:33.877Z,10.41
2023-04-04T15:59:01.587Z,10.51
2023-04-04T16:01:29.294Z,10.41
2023-04-04T16:03:57.029Z,10.46
2023-04-04T16:06:25.697Z,10.40
2023-04-04T16:08:54.259Z,10.51
2023-04-04T16:11:22.653Z,10.39
2023-04-04T16:13:51.689Z,10.42
2023-04-04T16:16:19.351Z,10.50
2023-04-04T16:18:47.000Z,10.50
2023-04-04T16:21:14.723Z,10.28
2023-04-04T16:23:43.727Z,10.25
2023-04-04T16:26:11.607Z,10.10
2023-04-04T16:28:40.140Z,9.94
2023-04-04T16:31:09.157Z,10.07
2023-04-04T16:33:36.923Z,9.83
2023-04-04T16:36:05.455Z,9.89
2023-04-04T16:38:33.116Z,9.64
2023-04-04T16:41:01.300Z,9.76
2023-04-04T16:43:29.327Z,9.79
2023-04-04T16:45:56.949Z,9.68
2023-04-04T16:48:27.038Z,9.44
2023-04-04T16:50:54.762Z,9.34
2023-04-04T16:53:22.394Z,9.19
2023-04-04T16:55:50.050Z,8.85
2023-04-04T16:58:17.742Z,8.79
2023-04-04T17:00:45.783Z,8.95
2023-04-04T17:03:13.467Z,8.97
2023-04-04T17:05:42.483Z,8.81
2023-04-04T17:08:10.227Z,8.70
2023-04-04T17:10:40.390Z,8.59
2023-04-04T17:13:08.384Z,8.40
2023-04-04T17:15:36.614Z,8.34
2023-04-04T17:18:05.562Z,8.29
2023-04-04T17:20:34.492Z,8.21
2023-04-04T17:23:03.707Z,8.04
2023-04-04T17:25:31.399Z,8.01
2023-04-04T17:27:59.443Z,7.95
2023-04-04T17:30:27.764Z,7.92
2023-04-04T17:32:56.023Z,8.00
2023-04-04T17:35:23.680Z,7.79
2023-04-04T17:37:51.735Z,7.73
2023-04-04T17:40:21.209Z,7.52
2023-04-04T17:42:49.068Z,7.44
2023-04-04T17:45:17.311Z,7.31
2023-04-04T17:47:46.065Z,7.24
2023-04-04T17:50:14.388Z,7.11
2023-04-04T17:52:42.357Z,6.98
2023-04-04T17:55:11.345Z,6.81
2023-04-04T17:57:40.945Z,6.80
2023-04-04T18:00:10.903Z,6.63
2023-04-04T18:02:38.710Z,6.59
2023-04-04T18:05:06.850Z,6.55
2023-04-04T18:07:34.463Z,6.37
2023-04-04T18:10:02.079Z,6.25
2023-04-04T18:12:30.546Z,6.14
2023-04-04T18:14:59.742Z,6.08
2023-04-04T18:17:28.244Z,6.06
2023-04-04T18:19:57.510Z,5.99
2023-04-04T18:22:27.014Z,5.90
2023-04-04T18:24:54.810Z,5.79
2023-04-04T18:27:22.508Z,5.66
2023-04-04T18:29:50.194Z,5.46
2023-04-04T18:32:21.472Z,5.27
2023-04-04T18:34:49.074Z,5.14
2023-04-04T18:37:16.711Z,5.11
2023-04-04T18:39:44.364Z,5.09
2023-04-04T18:42:12.043Z,5.03
2023-04-04T18:44:40.125Z,4.96
2023-04-04T18:47:08.681Z,4.93
2023-04-04T18:49:38.205Z,4.81
2023-04-04T18:52:05.849Z,4.83
2023-04-04T18:54:33.451Z,4.83
2023-04-04T18:57:01.089Z,4.63
2023-04-04T18:59:30.706Z,4.64
2023-04-04T19:02:00.760Z,4.63
2023-04-04T19:04:30.474Z,4.47
2023-04-04T19:07:05.418Z,4.55
2023-04-04T19:09:33.540Z,4.40
2023-04-04T19:12:01.709Z,4.47
2023-04-04T19:14:31.295Z,4.45
2023-04-04T19:16:59.168Z,4.33
2023-04-04T19:19:26.889Z,4.27
2023-04-04T19:21:54.611Z,4.32
2023-04-04T19:24:23.646Z,4.50
2023-04-04T19:26:51.297Z,4.59
2023-04-04T19:29:21.276Z,4.60
2023-04-04T19:31:48.925Z,4.60
2023-04-04T19:34:17.347Z,4.56
2023-04-04T19:36:45.099Z,4.51
2023-04-04T19:39:12.694Z,4.56
2023-04-04T19:41:42.207Z,4.53
2023-04-04T19:44:19.019Z,4.52
2023-04-04T19:46:47.643Z,4.46
2023-04-04T19:49:16.536Z,4.50
2023-04-04T19:51:51.242Z,4.46
2023-04-04T19:54:24.923Z,4.45
2023-04-04T19:57:00.487Z,4.46
2023-04-04T19:59:57.191Z,4.36
2023-04-04T20:02:54.093Z,4.40
2023-04-04T20:05:57.684Z,4.43
2023-04-04T20:08:36.876Z,4.32
2023-04-04T20:11:06.571Z,4.34
2023-04-04T20:13:37.130Z,4.29
2023-04-04T20:16:07.055Z,4.24
2023-04-04T20:18:35.873Z,4.22
2023-04-04T20:21:07.196Z,4.15
2023-04-04T20:23:43.121Z,4.06
2023-04-04T20:26:13.712Z,4.07
2023-04-04T20:28:46.116Z,4.07
2023-04-04T20:31:17.448Z,3.97
2023-04-04T20:33:45.261Z,3.90
2023-04-04T20:36:31.331Z,3.86
2023-04-04T20:38:59.465Z,3.90
2023-04-04T20:41:27.555Z,3.74
2023-04-04T20:43:58.013Z,3.80
2023-04-04T20:46:27.148Z,3.73
2023-04-04T20:48:56.867Z,3.57
2023-04-04T20:51:30.296Z,3.63
2023-04-04T20:54:00.323Z,3.58
2023-04-04T20:56:52.429Z,3.54
2023-04-04T20:59:38.239Z,3.51
2023-04-04T21:02:16.614Z,3.49
2023-04-04T21:04:48.121Z,3.50
2023-04-04T21:07:36.420Z,3.40
2023-04-04T21:10:21.192Z,3.43
2023-04-04T21:12:48.788Z,3.52
2023-04-04T21:15:24.280Z,3.53
2023-04-04T21:17:52.422Z,3.47
2023-04-04T21:20:54.521Z,3.47
2023-04-04T21:23:32.131Z,3.56
2023-04-04T21:26:01.301Z,3.53
2023-04-04T21:28:32.536Z,3.54
2023-04-04T21:31:03.520Z,3.59
2023-04-04T21:33:31.397Z,3.56
2023-04-04T21:35:59.088Z,3.57
2023-04-04T21:38:30.846Z,3.59
2023-04-04T21:40:59.923Z,3.58
2023-04-04T21:43:28.061Z,3.49
2023-04-04T21:45:56.544Z,3.59
2023-04-04T21:48:26.208Z,3.56
2023-04-04T21:50:54.447Z,3.62
2023-04-04T21:53:23.449Z,3.58
2023-04-04T21:55:51.720Z,3.56
2023-04-04T21:58:19.392Z,3.56
2023-04-04T22:00:47.042Z,3.57
2023-04-04T22:03:15.364Z,3.58
2023-04-04T22:05:44.396Z,3.42
2023-04-04T22:08:12.094Z,3.52
2023-04-04T22:10:45.220Z,3.52
2023-04-04T22:13:14.607Z,3.51
2023-04-04T22:15:43.961Z,3.55
2023-04-04T22:18:14.807Z,3.55
2023-04-04T22:20:44.694Z,3.53
2023-04-04T22:23:15.303Z,3.53
2023-04-04T22:25:43.015Z,3.54
2023-04-04T22:28:10.772Z,3.52
2023-04-04T22:30:42.027Z,3.54
2023-04-04T22:33:10.077Z,3.36
2023-04-04T22:35:37.918Z,3.55
2023-04-04T22:38:06.949Z,3.50
2023-04-04T22:40:35.183Z,3.32
2023-04-04T22:43:03.143Z,3.38
2023-04-04T22:45:32.020Z,3.35
2023-04-04T22:48:02.049Z,3.28
2023-04-04T22:50:30.352Z,3.42
2023-04-04T22:52:58.640Z,3.32
2023-04-04T22:55:28.791Z,3.40
2023-04-04T22:57:56.425Z,3.40
2023-04-04T23:00:24.062Z,3.35
2023-04-04T23:02:52.266Z,3.31
2023-04-04T23:05:20.023Z,3.29
2023-04-04T23:07:47.739Z,3.35
2023-04-04T23:10:16.583Z,3.28
2023-04-04T23:12:46.824Z,3.26
2023-04-04T23:15:14.876Z,3.31
2023-04-04T23:17:42.559Z,3.26
2023-04-04T23:20:10.680Z,3.29
2023-04-04T23:22:39.073Z,3.28
2023-04-04T23:25:07.934Z,3.29
2023-04-04T23:27:35.805Z,3.24
2023-04-04T23:30:05.442Z,3.16
2023-04-04T23:32:33.414Z,3.10
2023-04-04T23:35:01.019Z,3.05
2023-04-04T23:37:28.886Z,3.08
2023-04-04T23:39:56.496Z,3.02
2023-04-04T23:42:24.337Z,3.04
2023-04-04T23:44:52.260Z,2.85
2023-04-04T23:47:21.436Z,2.82
2023-04-04T23:49:49.084Z,2.76
2023-04-04T23:52:16.770Z,2.73
2023-04-04T23:54:44.414Z,2.61
2023-04-04T23:57:12.021Z,2.59
2023-04-04T23:59:39.600Z,2.61
